KFXY

Forest City Municipal Airport

Forest City, Iowa, USA
METAR KFXY 211955Z AUTO 04006KT 10SM OVC046 03/01 A2984 RMK AO2
Observed Flight Rules
Jan-21 @ 19:55 UTC (29 minutes ago) Visual Flight Rules
Wind Visibility Clouds
40° at 6 knots 10 miles
  • Overcast at 4,600' AGL
Temperatures Readings
Current 3°C / 37°F
Dewpoint 1°C / 34°F
Humidity 87%
Altimeter 29.84" Hg
Pressure 1010 hPa
Elevation 375
METAR KFXY 211955Z AUTO 04006KT 10SM OVC046 03/01 A2984 RMK AO2
Observed Flight Rules
Jan-21 @ 19:55 UTC
(29 minutes ago)
VFR
Wind Visibility
40° at 6 knots 10 miles
Clouds
  • Overcast at 4,600' AGL
Temperature Dewpoint
3°C / 37°F 1°C / 34°F
Humidity Altimeter Pressure
87% 29.84" Hg 1010 hPa